createdAt,value
2022-12-20T00:01:07.251Z,50.07
2022-12-20T00:03:35.389Z,51.47
2022-12-20T00:06:04.921Z,53.53
2022-12-20T00:08:34.837Z,53.70
2022-12-20T00:11:05.014Z,49.30
2022-12-20T00:13:33.892Z,53.90
2022-12-20T00:16:06.621Z,62.60
2022-12-20T00:18:34.717Z,55.90
2022-12-20T00:21:05.235Z,52.40
2022-12-20T00:23:33.707Z,61.50
2022-12-20T00:26:03.256Z,58.50
2022-12-20T00:28:31.719Z,57.87
2022-12-20T00:31:00.117Z,55.33
2022-12-20T00:33:28.573Z,53.83
2022-12-20T00:35:57.107Z,54.27
2022-12-20T00:38:26.919Z,54.67
2022-12-20T00:41:02.169Z,56.37
2022-12-20T00:43:31.872Z,59.33
2022-12-20T00:46:00.425Z,53.60
2022-12-20T00:48:29.900Z,52.73
2022-12-20T00:51:00.251Z,49.63
2022-12-20T00:53:30.585Z,51.13
2022-12-20T00:55:59.463Z,55.07
2022-12-20T00:58:27.475Z,51.70
2022-12-20T01:00:57.232Z,53.93
2022-12-20T01:03:25.880Z,49.43
2022-12-20T01:05:54.679Z,50.37
2022-12-20T01:08:25.299Z,48.60
2022-12-20T01:11:01.483Z,52.87
2022-12-20T01:13:29.906Z,49.33
2022-12-20T01:15:57.977Z,51.30
2022-12-20T01:18:26.170Z,51.53
2022-12-20T01:21:02.608Z,48.63
2022-12-20T01:23:31.008Z,51.87
2022-12-20T01:26:01.526Z,51.83
2022-12-20T01:28:30.430Z,53.90
2022-12-20T01:30:58.470Z,47.60
2022-12-20T01:33:26.507Z,53.87
2022-12-20T01:35:58.969Z,48.93
2022-12-20T01:38:27.872Z,51.30
2022-12-20T01:40:56.805Z,52.03
2022-12-20T01:43:27.249Z,52.60
2022-12-20T01:45:55.210Z,50.03
2022-12-20T01:48:26.582Z,52.17
2022-12-20T01:50:54.844Z,50.47
2022-12-20T01:53:25.419Z,53.17
2022-12-20T01:55:54.777Z,49.90
2022-12-20T01:58:23.939Z,53.43
2022-12-20T02:00:53.324Z,44.13
2022-12-20T02:03:21.396Z,55.70
2022-12-20T02:05:49.424Z,49.10
2022-12-20T02:08:20.406Z,43.00
2022-12-20T02:11:01.052Z,49.13
2022-12-20T02:13:42.306Z,57.23
2022-12-20T02:16:15.833Z,51.93
2022-12-20T02:18:49.467Z,47.60
2022-12-20T02:21:30.715Z,52.70
2022-12-20T02:24:28.718Z,47.47
2022-12-20T02:27:18.500Z,50.00
2022-12-20T02:30:03.578Z,46.23
2022-12-20T02:32:38.017Z,46.50
2022-12-20T02:35:07.983Z,46.27
2022-12-20T02:37:36.270Z,51.37
2022-12-20T02:40:06.951Z,50.30
2022-12-20T02:42:35.614Z,47.17
2022-12-20T02:45:19.576Z,54.07
2022-12-20T02:47:51.725Z,54.33
2022-12-20T02:50:24.343Z,47.97
2022-12-20T02:52:54.029Z,50.63
2022-12-20T02:55:32.761Z,45.60
2022-12-20T02:58:07.475Z,50.10
2022-12-20T03:00:41.987Z,46.10
2022-12-20T03:03:23.799Z,48.90
2022-12-20T03:05:54.377Z,47.10
2022-12-20T03:08:24.427Z,50.20
2022-12-20T03:10:53.761Z,51.63
2022-12-20T03:13:22.630Z,49.10
2022-12-20T03:16:00.646Z,48.40
2022-12-20T03:18:28.709Z,46.03
2022-12-20T03:20:56.646Z,52.40
2022-12-20T03:23:24.733Z,51.07
2022-12-20T03:25:52.678Z,56.90
2022-12-20T03:28:31.915Z,56.03
2022-12-20T03:31:01.881Z,52.97
2022-12-20T03:33:32.635Z,53.10
2022-12-20T03:36:03.339Z,50.07
2022-12-20T03:38:32.198Z,56.70
2022-12-20T03:41:00.262Z,48.07
2022-12-20T03:43:28.314Z,43.30
2022-12-20T03:45:56.289Z,46.53
2022-12-20T03:48:25.873Z,44.20
2022-12-20T03:50:53.997Z,45.90
2022-12-20T03:53:21.976Z,47.57
2022-12-20T03:55:50.130Z,48.97
2022-12-20T03:58:18.257Z,48.93
2022-12-20T04:00:46.291Z,50.47
2022-12-20T04:03:35.091Z,49.43
2022-12-20T04:06:03.281Z,47.87
2022-12-20T04:08:31.588Z,53.20
2022-12-20T04:11:18.059Z,46.73
2022-12-20T04:13:57.139Z,50.47
2022-12-20T04:16:27.857Z,46.70
2022-12-20T04:18:58.742Z,48.80
2022-12-20T04:21:31.933Z,53.97
2022-12-20T04:24:01.106Z,53.37
2022-12-20T04:26:39.585Z,49.63
2022-12-20T04:29:07.704Z,49.63
2022-12-20T04:31:36.491Z,47.17
2022-12-20T04:34:06.075Z,44.80
2022-12-20T04:36:35.372Z,42.57
2022-12-20T04:39:06.709Z,45.63
2022-12-20T04:41:44.844Z,50.83
2022-12-20T04:44:14.841Z,44.40
2022-12-20T04:46:42.915Z,44.40
2022-12-20T04:49:16.561Z,37.33
2022-12-20T04:51:45.925Z,46.60
2022-12-20T04:54:16.048Z,42.50
2022-12-20T04:56:51.560Z,47.77
2022-12-20T04:59:23.050Z,41.03
2022-12-20T05:01:53.995Z,44.70
2022-12-20T05:04:40.066Z,40.53
2022-12-20T05:07:08.331Z,44.07
2022-12-20T05:09:38.695Z,44.53
2022-12-20T05:12:07.156Z,42.37
2022-12-20T05:14:35.570Z,41.50
2022-12-20T05:17:03.799Z,42.03
2022-12-20T05:19:32.917Z,47.90
2022-12-20T05:22:25.739Z,46.77
2022-12-20T05:25:28.938Z,39.23
2022-12-20T05:28:00.361Z,45.73
2022-12-20T05:30:31.678Z,45.30
2022-12-20T05:32:59.895Z,52.57
2022-12-20T05:35:28.365Z,48.70
2022-12-20T05:38:06.978Z,51.50
2022-12-20T05:40:36.841Z,46.37
2022-12-20T05:43:06.229Z,48.20
2022-12-20T05:45:46.338Z,47.63
2022-12-20T05:48:16.204Z,47.83
2022-12-20T05:50:46.077Z,44.50
2022-12-20T05:53:30.693Z,48.43
2022-12-20T05:56:02.491Z,51.57
2022-12-20T05:58:33.697Z,46.30
2022-12-20T06:01:03.688Z,44.23
2022-12-20T06:03:36.169Z,48.87
2022-12-20T06:06:14.033Z,49.50
2022-12-20T06:08:45.657Z,49.70
2022-12-20T06:11:32.866Z,45.53
2022-12-20T06:14:10.808Z,47.33
2022-12-20T06:16:45.153Z,42.63
2022-12-20T06:19:20.892Z,47.20
2022-12-20T06:21:50.658Z,53.57
2022-12-20T06:24:25.464Z,49.83
2022-12-20T06:26:54.383Z,50.93
2022-12-20T06:29:24.586Z,46.80
2022-12-20T06:31:57.319Z,43.97
2022-12-20T06:34:25.757Z,53.73
2022-12-20T06:36:54.078Z,48.70
2022-12-20T06:39:28.600Z,45.40
2022-12-20T06:42:15.904Z,43.03
2022-12-20T06:44:47.305Z,54.67
2022-12-20T06:47:16.538Z,48.37
2022-12-20T06:49:44.730Z,47.03
2022-12-20T06:52:23.453Z,51.77
2022-12-20T06:54:57.451Z,50.33
2022-12-20T06:57:25.850Z,49.97
2022-12-20T06:59:55.608Z,43.80
2022-12-20T07:02:27.264Z,46.53
2022-12-20T07:04:55.829Z,49.13
2022-12-20T07:07:24.290Z,43.10
2022-12-20T07:09:52.463Z,51.00
2022-12-20T07:12:21.989Z,46.53
2022-12-20T07:14:50.449Z,50.47
2022-12-20T07:17:18.655Z,48.80
2022-12-20T07:19:50.759Z,55.50
2022-12-20T07:22:19.563Z,56.07
2022-12-20T07:24:47.854Z,50.43
2022-12-20T07:27:15.920Z,60.43
2022-12-20T07:29:45.333Z,56.13
2022-12-20T07:32:14.436Z,54.80
2022-12-20T07:34:42.503Z,57.50
2022-12-20T07:37:11.837Z,65.30
2022-12-20T07:39:39.976Z,54.00
2022-12-20T07:42:08.291Z,60.53
2022-12-20T07:44:44.930Z,55.47
2022-12-20T07:47:12.900Z,53.57
2022-12-20T07:49:41.351Z,50.77
2022-12-20T07:52:12.169Z,51.93
2022-12-20T07:54:46.801Z,55.20
2022-12-20T07:57:20.653Z,52.97
2022-12-20T07:59:54.579Z,53.50
2022-12-20T08:02:28.071Z,57.10
2022-12-20T08:04:57.178Z,52.33
2022-12-20T08:07:25.673Z,49.67
2022-12-20T08:09:53.781Z,52.37
2022-12-20T08:12:23.508Z,48.43
2022-12-20T08:14:56.227Z,44.97
2022-12-20T08:17:24.351Z,50.20
2022-12-20T08:19:52.652Z,51.87
2022-12-20T08:22:20.692Z,48.80
2022-12-20T08:24:48.697Z,50.30
2022-12-20T08:27:16.626Z,52.00
2022-12-20T08:29:44.648Z,54.57
2022-12-20T08:32:14.261Z,55.50
2022-12-20T08:34:42.184Z,54.93
2022-12-20T08:37:14.718Z,52.30
2022-12-20T08:39:43.328Z,59.47
2022-12-20T08:42:11.841Z,49.53
2022-12-20T08:44:39.872Z,56.33
2022-12-20T08:47:07.911Z,53.03
2022-12-20T08:49:41.102Z,52.63
2022-12-20T08:52:12.110Z,54.20
2022-12-20T08:54:40.113Z,51.47
2022-12-20T08:57:08.164Z,54.57
2022-12-20T08:59:36.133Z,47.30
2022-12-20T09:02:04.252Z,48.33
2022-12-20T09:04:32.532Z,50.03
2022-12-20T09:07:02.003Z,48.07
2022-12-20T09:09:30.082Z,48.30
2022-12-20T09:11:58.010Z,45.07
2022-12-20T09:14:26.032Z,46.17
2022-12-20T09:16:54.076Z,46.13
2022-12-20T09:19:22.145Z,48.13
2022-12-20T09:21:50.077Z,51.30
2022-12-20T09:24:19.422Z,51.93
2022-12-20T09:26:50.322Z,45.70
2022-12-20T09:29:27.119Z,54.10
2022-12-20T09:31:57.681Z,45.43
2022-12-20T09:34:25.741Z,50.83
2022-12-20T09:36:53.909Z,43.60
2022-12-20T09:39:23.572Z,43.63
2022-12-20T09:41:51.568Z,48.67
2022-12-20T09:44:28.184Z,50.97
2022-12-20T09:47:02.387Z,38.40
2022-12-20T09:49:38.271Z,44.80
2022-12-20T09:52:25.555Z,44.90
2022-12-20T09:55:02.937Z,48.63
2022-12-20T09:57:41.007Z,44.90
2022-12-20T10:00:14.387Z,47.37
2022-12-20T10:03:11.743Z,45.67
2022-12-20T10:05:41.511Z,45.23
2022-12-20T10:08:17.938Z,49.30
2022-12-20T10:11:00.026Z,45.87
2022-12-20T10:13:49.220Z,44.40
2022-12-20T10:16:34.692Z,50.37
2022-12-20T10:19:17.408Z,65.30
2022-12-20T10:21:53.334Z,67.03
2022-12-20T10:24:27.349Z,68.57
2022-12-20T10:26:57.040Z,78.43
2022-12-20T10:29:24.986Z,63.00
2022-12-20T10:31:55.684Z,54.90
2022-12-20T10:34:24.670Z,54.90
2022-12-20T10:37:12.422Z,46.53
2022-12-20T10:39:45.289Z,45.57
2022-12-20T10:42:35.682Z,44.43
2022-12-20T10:45:05.021Z,46.80
2022-12-20T10:47:39.800Z,51.67
2022-12-20T10:50:20.155Z,44.27
2022-12-20T10:53:04.914Z,41.93
2022-12-20T10:55:38.920Z,46.10
2022-12-20T10:58:16.913Z,44.40
2022-12-20T11:00:45.858Z,45.50
2022-12-20T11:03:20.427Z,42.37
2022-12-20T11:05:57.228Z,41.77
2022-12-20T11:08:51.242Z,43.87
2022-12-20T11:11:18.737Z,44.97
2022-12-20T11:13:49.141Z,47.83
2022-12-20T11:16:26.763Z,49.07
2022-12-20T11:19:06.059Z,43.50
2022-12-20T11:21:43.915Z,46.97
2022-12-20T11:24:16.385Z,46.80
2022-12-20T11:27:01.690Z,48.57
2022-12-20T11:30:01.912Z,47.70
2022-12-20T11:32:48.324Z,53.33
2022-12-20T11:35:23.312Z,49.20
2022-12-20T11:38:09.253Z,48.20
2022-12-20T11:40:45.523Z,41.67
2022-12-20T11:44:01.059Z,43.50
2022-12-20T11:46:43.179Z,43.67
2022-12-20T11:49:26.272Z,44.73
2022-12-20T11:52:03.838Z,48.07
2022-12-20T11:54:38.707Z,45.63
2022-12-20T11:57:14.662Z,46.57
2022-12-20T11:59:48.800Z,42.23
2022-12-20T12:02:26.840Z,51.60
2022-12-20T12:04:59.821Z,43.27
2022-12-20T12:07:32.696Z,47.57
2022-12-20T12:10:03.500Z,46.70
2022-12-20T12:12:35.263Z,41.50
2022-12-20T12:15:12.745Z,46.60
2022-12-20T12:17:49.580Z,43.27
2022-12-20T12:20:24.661Z,44.80
2022-12-20T12:22:58.897Z,42.33
2022-12-20T12:25:27.122Z,47.67
2022-12-20T12:27:55.309Z,44.80
2022-12-20T12:30:24.016Z,41.17
2022-12-20T12:32:56.590Z,44.07
2022-12-20T12:35:50.140Z,41.03
2022-12-20T12:38:45.396Z,43.37
2022-12-20T12:41:35.023Z,37.77
2022-12-20T12:44:32.265Z,43.47
2022-12-20T12:47:03.716Z,46.27
2022-12-20T12:49:34.472Z,42.77
2022-12-20T12:52:05.972Z,45.07
2022-12-20T12:54:38.355Z,40.43
2022-12-20T12:57:12.812Z,48.30
2022-12-20T12:59:48.159Z,40.50
2022-12-20T13:02:36.589Z,45.80
2022-12-20T13:05:35.505Z,42.87
2022-12-20T13:08:04.646Z,46.57
2022-12-20T13:10:59.409Z,43.00
2022-12-20T13:13:28.542Z,45.50
2022-12-20T13:17:09.429Z,46.37
2022-12-20T13:19:32.206Z,46.07
2022-12-20T13:22:21.882Z,46.30
2022-12-20T13:24:56.982Z,45.73
2022-12-20T13:27:31.842Z,43.43
2022-12-20T13:30:23.209Z,47.43
2022-12-20T13:33:25.114Z,45.37
2022-12-20T13:35:59.179Z,48.87
2022-12-20T13:39:02.997Z,50.50
2022-12-20T13:41:46.206Z,46.60
2022-12-20T13:44:37.959Z,50.97
2022-12-20T13:47:31.679Z,48.40
2022-12-20T13:50:03.248Z,55.07
2022-12-20T13:52:33.084Z,51.23
2022-12-20T13:55:09.020Z,57.00
2022-12-20T13:57:44.749Z,56.27
2022-12-20T14:00:18.587Z,49.97
2022-12-20T14:02:47.558Z,53.17
2022-12-20T14:05:20.060Z,49.30
2022-12-20T14:07:53.188Z,52.00
2022-12-20T14:10:25.265Z,46.00
2022-12-20T14:12:55.479Z,53.23
2022-12-20T14:15:26.695Z,50.10
2022-12-20T14:17:55.254Z,51.30
2022-12-20T14:20:29.078Z,51.13
2022-12-20T14:23:05.095Z,50.27
2022-12-20T14:25:38.629Z,52.70
2022-12-20T14:28:24.793Z,51.33
2022-12-20T14:30:56.287Z,51.87
2022-12-20T14:33:30.876Z,50.30
2022-12-20T14:36:08.202Z,50.53
2022-12-20T14:38:36.498Z,51.67
2022-12-20T14:41:04.632Z,50.00
2022-12-20T14:43:37.834Z,57.70
2022-12-20T14:46:17.737Z,52.47
2022-12-20T14:48:46.407Z,50.00
2022-12-20T14:51:22.179Z,49.30
2022-12-20T14:53:51.613Z,55.70
2022-12-20T14:56:27.881Z,55.73
2022-12-20T14:59:08.016Z,58.53
2022-12-20T15:01:43.452Z,55.10
2022-12-20T15:04:24.843Z,55.77
2022-12-20T15:06:53.985Z,55.40
2022-12-20T15:09:22.692Z,59.43
2022-12-20T15:11:51.685Z,58.67
2022-12-20T15:14:35.042Z,67.00
2022-12-20T15:17:03.958Z,57.63
2022-12-20T15:19:36.221Z,62.67
2022-12-20T15:22:07.551Z,64.57
2022-12-20T15:24:35.578Z,60.83
2022-12-20T15:27:03.611Z,61.60
2022-12-20T15:29:33.053Z,63.37
2022-12-20T15:32:07.743Z,65.13
2022-12-20T15:34:38.118Z,59.03
2022-12-20T15:37:06.776Z,57.77
2022-12-20T15:39:35.247Z,53.40
2022-12-20T15:42:05.859Z,63.53
2022-12-20T15:44:36.094Z,60.43
2022-12-20T15:47:04.223Z,62.47
2022-12-20T15:49:33.441Z,59.57
2022-12-20T15:52:01.638Z,59.40
2022-12-20T15:54:32.723Z,59.93
2022-12-20T15:57:03.230Z,67.90
2022-12-20T16:02:23.776Z,57.70
2022-12-20T16:04:52.004Z,61.17
2022-12-20T16:07:20.415Z,56.57
2022-12-20T16:09:48.566Z,50.47
2022-12-20T16:12:19.135Z,55.53
2022-12-20T16:14:47.592Z,55.03
2022-12-20T16:17:16.638Z,49.53
2022-12-20T16:19:46.950Z,59.57
2022-12-20T16:22:17.058Z,60.80
2022-12-20T16:24:46.158Z,57.50
2022-12-20T16:27:14.702Z,53.20
2022-12-20T16:29:42.957Z,57.77
2022-12-20T16:32:15.746Z,59.20
2022-12-20T16:34:45.633Z,60.27
2022-12-20T16:37:14.133Z,58.57
2022-12-20T16:39:42.777Z,59.57
2022-12-20T16:42:14.777Z,59.83
2022-12-20T16:44:45.269Z,60.17
2022-12-20T16:47:14.632Z,62.17
2022-12-20T16:49:51.289Z,57.87
2022-12-20T16:52:23.260Z,62.83
2022-12-20T16:54:51.934Z,61.07
2022-12-20T16:57:21.185Z,66.77
2022-12-20T16:59:49.158Z,67.00
2022-12-20T17:02:24.710Z,68.03
2022-12-20T17:04:52.795Z,66.70
2022-12-20T17:07:22.563Z,65.57
2022-12-20T17:09:50.788Z,64.97
2022-12-20T17:12:20.802Z,57.67
2022-12-20T17:14:49.772Z,64.87
2022-12-20T17:17:18.086Z,64.53
2022-12-20T17:19:46.354Z,66.03
2022-12-20T17:22:24.561Z,62.87
2022-12-20T17:24:54.055Z,63.07
2022-12-20T17:27:22.266Z,55.63
2022-12-20T17:29:52.176Z,63.43
2022-12-20T17:32:22.393Z,63.00
2022-12-20T17:34:51.044Z,63.80
2022-12-20T17:37:19.206Z,65.17
2022-12-20T17:39:47.579Z,69.73
2022-12-20T17:42:17.395Z,64.37
2022-12-20T17:44:46.631Z,65.90
2022-12-20T17:47:16.947Z,70.30
2022-12-20T17:49:44.999Z,71.40
2022-12-20T17:52:15.505Z,79.63
2022-12-20T17:54:43.579Z,77.43
2022-12-20T17:57:16.475Z,77.80
2022-12-20T17:59:45.130Z,82.40
2022-12-20T18:02:22.413Z,92.63
2022-12-20T18:04:50.997Z,86.07
2022-12-20T18:07:19.715Z,77.40
2022-12-20T18:09:48.822Z,64.50
2022-12-20T18:12:18.955Z,62.77
2022-12-20T18:14:49.558Z,67.07
2022-12-20T18:17:17.700Z,64.03
2022-12-20T18:19:45.819Z,67.23
2022-12-20T18:22:15.102Z,64.07
2022-12-20T18:24:43.179Z,76.37
2022-12-20T18:27:11.253Z,80.93
2022-12-20T18:29:40.612Z,68.17
2022-12-20T18:32:08.610Z,68.13
2022-12-20T18:34:37.202Z,68.47
2022-12-20T18:37:05.697Z,64.40
2022-12-20T18:39:33.987Z,71.27
2022-12-20T18:42:01.991Z,75.17
2022-12-20T18:44:30.951Z,68.27
2022-12-20T18:47:00.342Z,65.20
2022-12-20T18:49:29.195Z,69.73
2022-12-20T18:52:00.831Z,74.80
2022-12-20T18:54:30.357Z,73.97
2022-12-20T18:56:58.480Z,70.43
2022-12-20T18:59:26.711Z,64.60
2022-12-20T19:01:54.794Z,62.43
2022-12-20T19:04:25.037Z,61.93
2022-12-20T19:06:53.283Z,59.63
2022-12-20T19:09:21.335Z,64.00
2022-12-20T19:11:56.283Z,63.17
2022-12-20T19:14:25.326Z,58.20
2022-12-20T19:17:00.700Z,64.93
2022-12-20T19:19:30.302Z,59.43
2022-12-20T19:21:58.834Z,60.17
2022-12-20T19:24:26.772Z,60.90
2022-12-20T19:26:54.731Z,60.53
2022-12-20T19:29:22.852Z,63.07
2022-12-20T19:31:50.847Z,64.23
2022-12-20T19:34:18.838Z,63.77
2022-12-20T19:36:48.417Z,57.57
2022-12-20T19:39:19.964Z,62.70
2022-12-20T19:42:15.479Z,67.33
2022-12-20T19:44:36.307Z,64.73
2022-12-20T19:47:04.356Z,61.93
2022-12-20T19:49:32.354Z,65.60
2022-12-20T19:52:01.639Z,59.50
2022-12-20T19:54:29.946Z,63.07
2022-12-20T19:56:58.551Z,59.40
2022-12-20T19:59:26.698Z,82.77
2022-12-20T20:01:54.707Z,103.07
2022-12-20T20:04:22.948Z,124.33
2022-12-20T20:06:50.888Z,86.37
2022-12-20T20:09:20.167Z,76.77
2022-12-20T20:11:48.086Z,73.63
2022-12-20T20:14:15.986Z,62.53
2022-12-20T20:16:44.058Z,58.20
2022-12-20T20:19:12.211Z,57.93
2022-12-20T20:21:40.172Z,55.50
2022-12-20T20:24:09.759Z,63.13
2022-12-20T20:26:39.077Z,63.97
2022-12-20T20:29:10.305Z,63.83
2022-12-20T20:31:38.841Z,68.17
2022-12-20T20:34:06.843Z,67.33
2022-12-20T20:36:34.809Z,79.57
2022-12-20T20:39:02.820Z,66.63
2022-12-20T20:41:31.743Z,96.50
2022-12-20T20:44:01.131Z,72.57
2022-12-20T20:46:29.216Z,75.53
2022-12-20T20:48:57.255Z,66.00
2022-12-20T20:51:25.237Z,63.47
2022-12-20T20:53:53.184Z,62.63
2022-12-20T20:56:21.131Z,60.10
2022-12-20T20:58:49.993Z,61.17
2022-12-20T21:01:19.653Z,60.70
2022-12-20T21:03:48.765Z,74.37
2022-12-20T21:09:05.490Z,64.67
2022-12-20T21:11:33.883Z,61.90
2022-12-20T21:14:01.946Z,58.60
2022-12-20T21:16:31.347Z,61.97
2022-12-20T21:19:00.443Z,62.47
2022-12-20T21:21:28.541Z,70.80
2022-12-20T21:23:56.924Z,68.93
2022-12-20T21:26:26.133Z,65.30
2022-12-20T21:28:57.958Z,65.83
2022-12-20T21:31:26.037Z,65.97
2022-12-20T21:33:56.557Z,59.47
2022-12-20T21:36:24.951Z,57.83
2022-12-20T21:38:54.550Z,67.40
2022-12-20T21:41:25.064Z,61.30
2022-12-20T21:43:56.211Z,59.20
2022-12-20T21:46:24.277Z,61.17
2022-12-20T21:48:52.330Z,56.97
2022-12-20T21:51:23.689Z,64.67
2022-12-20T21:53:53.478Z,63.23
2022-12-20T21:56:22.468Z,65.33
2022-12-20T21:58:51.828Z,59.50
2022-12-20T22:01:22.453Z,68.77
2022-12-20T22:03:51.687Z,56.00
2022-12-20T22:06:21.616Z,61.20
2022-12-20T22:08:49.845Z,61.10
2022-12-20T22:11:19.711Z,57.30
2022-12-20T22:13:47.955Z,56.43
2022-12-20T22:16:17.898Z,64.07
2022-12-20T22:18:49.582Z,58.73
2022-12-20T22:21:18.668Z,57.87
2022-12-20T22:23:48.416Z,62.53
2022-12-20T22:26:19.256Z,64.07
2022-12-20T22:28:49.156Z,58.50
2022-12-20T22:31:17.609Z,52.37
2022-12-20T22:33:45.983Z,53.60
2022-12-20T22:36:15.774Z,54.23
2022-12-20T22:38:44.724Z,60.47
2022-12-20T22:41:16.666Z,54.37
2022-12-20T22:43:45.717Z,52.43
2022-12-20T22:46:15.463Z,53.10
2022-12-20T22:48:43.960Z,54.60
2022-12-20T22:51:13.905Z,51.30
2022-12-20T22:53:42.635Z,52.93
2022-12-20T22:56:10.977Z,60.57
2022-12-20T22:58:41.281Z,57.60
2022-12-20T23:01:12.884Z,55.60
2022-12-20T23:03:42.003Z,55.57
2022-12-20T23:06:13.033Z,56.87
2022-12-20T23:08:41.754Z,57.17
2022-12-20T23:11:34.267Z,58.53
2022-12-20T23:14:21.460Z,56.47
2022-12-20T23:16:49.465Z,53.43
2022-12-20T23:19:17.433Z,51.60
2022-12-20T23:22:03.157Z,55.07
2022-12-20T23:24:31.078Z,57.93
2022-12-20T23:26:58.980Z,59.83
2022-12-20T23:29:29.857Z,61.53
2022-12-20T23:31:58.085Z,56.70
2022-12-20T23:34:26.131Z,57.83
2022-12-20T23:36:54.113Z,59.93
2022-12-20T23:39:22.034Z,59.33
2022-12-20T23:41:49.917Z,59.40
2022-12-20T23:44:17.797Z,65.23
2022-12-20T23:46:47.071Z,68.03
2022-12-20T23:49:15.125Z,72.40
2022-12-20T23:51:43.277Z,69.77
2022-12-20T23:54:12.259Z,76.40
2022-12-20T23:56:40.156Z,66.17
2022-12-20T23:59:08.252Z,73.67
